sensor_id;sensor_type;location;lat;lon;timestamp;pressure;altitude;pressure_sealevel;temperature;humidity
8703;BME280;9002;42.708;23.186;2023-06-14T00:00:47;94680.66;;;19.46;82.84
8703;BME280;9002;42.708;23.186;2023-06-14T00:03:16;94681.84;;;19.56;83.03
8703;BME280;9002;42.708;23.186;2023-06-14T00:05:44;94685.69;;;19.31;83.63
8703;BME280;9002;42.708;23.186;2023-06-14T00:08:13;94684.97;;;19.36;83.07
8703;BME280;9002;42.708;23.186;2023-06-14T00:10:40;94680.09;;;19.83;81.35
8703;BME280;9002;42.708;23.186;2023-06-14T00:13:07;94670.06;;;19.80;80.39
8703;BME280;9002;42.708;23.186;2023-06-14T00:15:34;94667.94;;;19.99;80.33
8703;BME280;9002;42.708;23.186;2023-06-14T00:18:02;94668.09;;;20.14;78.85
8703;BME280;9002;42.708;23.186;2023-06-14T00:20:31;94666.09;;;19.99;79.00
8703;BME280;9002;42.708;23.186;2023-06-14T00:22:59;94671.25;;;20.38;77.37
8703;BME280;9002;42.708;23.186;2023-06-14T00:25:26;94648.47;;;20.49;76.35
8703;BME280;9002;42.708;23.186;2023-06-14T00:27:54;94665.63;;;20.56;76.98
8703;BME280;9002;42.708;23.186;2023-06-14T00:30:22;94665.97;;;20.11;78.26
8703;BME280;9002;42.708;23.186;2023-06-14T00:32:49;94659.06;;;20.05;78.72
8703;BME280;9002;42.708;23.186;2023-06-14T00:35:17;94663.16;;;20.18;78.95
8703;BME280;9002;42.708;23.186;2023-06-14T00:37:45;94659.38;;;20.08;79.17
8703;BME280;9002;42.708;23.186;2023-06-14T00:40:12;94663.63;;;20.15;78.71
8703;BME280;9002;42.708;23.186;2023-06-14T00:42:39;94657.47;;;20.31;78.44
8703;BME280;9002;42.708;23.186;2023-06-14T00:45:07;94660.16;;;20.36;76.84
8703;BME280;9002;42.708;23.186;2023-06-14T00:47:35;94637.41;;;19.71;79.04
8703;BME280;9002;42.708;23.186;2023-06-14T00:50:06;94647.75;;;20.04;79.03
8703;BME280;9002;42.708;23.186;2023-06-14T00:52:34;94650.09;;;20.28;77.86
8703;BME280;9002;42.708;23.186;2023-06-14T00:55:03;94654.72;;;20.42;77.07
8703;BME280;9002;42.708;23.186;2023-06-14T00:57:31;94653.91;;;20.69;75.96
8703;BME280;9002;42.708;23.186;2023-06-14T00:59:58;94654.97;;;20.41;76.80
8703;BME280;9002;42.708;23.186;2023-06-14T01:02:25;94642.63;;;20.15;77.83
8703;BME280;9002;42.708;23.186;2023-06-14T01:04:53;94651.00;;;19.68;80.49
8703;BME280;9002;42.708;23.186;2023-06-14T01:07:28;94651.19;;;19.83;79.69
8703;BME280;9002;42.708;23.186;2023-06-14T01:10:12;94655.59;;;19.99;79.34
8703;BME280;9002;42.708;23.186;2023-06-14T01:12:50;94646.56;;;19.90;80.14
8703;BME280;9002;42.708;23.186;2023-06-14T01:15:20;94643.13;;;20.38;77.57
8703;BME280;9002;42.708;23.186;2023-06-14T01:17:49;94645.31;;;20.25;78.45
8703;BME280;9002;42.708;23.186;2023-06-14T01:20:17;94652.44;;;20.51;76.98
8703;BME280;9002;42.708;23.186;2023-06-14T01:22:52;94646.41;;;20.51;76.94
8703;BME280;9002;42.708;23.186;2023-06-14T01:25:19;94648.78;;;20.52;76.55
8703;BME280;9002;42.708;23.186;2023-06-14T01:27:49;94643.97;;;20.22;77.90
8703;BME280;9002;42.708;23.186;2023-06-14T01:30:17;94649.63;;;20.36;78.05
8703;BME280;9002;42.708;23.186;2023-06-14T01:32:45;94648.69;;;20.42;77.61
8703;BME280;9002;42.708;23.186;2023-06-14T01:35:13;94644.91;;;20.60;76.36
8703;BME280;9002;42.708;23.186;2023-06-14T01:37:42;94644.47;;;20.73;76.11
8703;BME280;9002;42.708;23.186;2023-06-14T01:40:12;94648.38;;;20.65;76.07
8703;BME280;9002;42.708;23.186;2023-06-14T01:42:41;94639.03;;;20.26;78.01
8703;BME280;9002;42.708;23.186;2023-06-14T01:45:12;94642.66;;;20.20;78.08
8703;BME280;9002;42.708;23.186;2023-06-14T01:47:40;94647.94;;;20.20;78.49
8703;BME280;9002;42.708;23.186;2023-06-14T01:50:07;94646.38;;;20.24;77.45
8703;BME280;9002;42.708;23.186;2023-06-14T01:52:36;94645.97;;;20.37;76.33
8703;BME280;9002;42.708;23.186;2023-06-14T01:55:03;94649.47;;;20.42;76.22
8703;BME280;9002;42.708;23.186;2023-06-14T01:57:32;94648.50;;;20.27;76.43
8703;BME280;9002;42.708;23.186;2023-06-14T01:59:59;94654.50;;;19.95;78.00
8703;BME280;9002;42.708;23.186;2023-06-14T02:02:27;94658.34;;;19.88;78.59
8703;BME280;9002;42.708;23.186;2023-06-14T02:04:54;94662.69;;;19.77;78.80
8703;BME280;9002;42.708;23.186;2023-06-14T02:07:23;94666.72;;;19.85;77.89
8703;BME280;9002;42.708;23.186;2023-06-14T02:09:50;94671.72;;;19.86;77.89
8703;BME280;9002;42.708;23.186;2023-06-14T02:12:17;94674.28;;;20.03;77.54
8703;BME280;9002;42.708;23.186;2023-06-14T02:14:45;94676.66;;;20.04;77.03
8703;BME280;9002;42.708;23.186;2023-06-14T02:17:12;94674.81;;;20.05;77.14
8703;BME280;9002;42.708;23.186;2023-06-14T02:19:39;94678.19;;;20.00;77.94
8703;BME280;9002;42.708;23.186;2023-06-14T02:22:07;94677.41;;;19.78;78.59
8703;BME280;9002;42.708;23.186;2023-06-14T02:24:34;94677.75;;;19.65;79.44
8703;BME280;9002;42.708;23.186;2023-06-14T02:27:01;94677.41;;;18.84;83.03
8703;BME280;9002;42.708;23.186;2023-06-14T02:29:29;94676.13;;;18.87;84.18
8703;BME280;9002;42.708;23.186;2023-06-14T02:31:57;94680.34;;;18.88;84.04
8703;BME280;9002;42.708;23.186;2023-06-14T02:34:24;94684.00;;;19.42;81.51
8703;BME280;9002;42.708;23.186;2023-06-14T02:36:51;94680.91;;;19.28;82.18
8703;BME280;9002;42.708;23.186;2023-06-14T02:39:18;94679.00;;;19.57;80.38
8703;BME280;9002;42.708;23.186;2023-06-14T02:41:46;94678.25;;;19.84;79.00
8703;BME280;9002;42.708;23.186;2023-06-14T02:44:13;94677.28;;;19.90;78.58
8703;BME280;9002;42.708;23.186;2023-06-14T02:46:43;94654.91;;;19.05;81.08
8703;BME280;9002;42.708;23.186;2023-06-14T02:49:11;94675.81;;;19.38;82.04
8703;BME280;9002;42.708;23.186;2023-06-14T02:51:38;94668.88;;;19.49;80.89
8703;BME280;9002;42.708;23.186;2023-06-14T02:54:05;94675.09;;;19.04;83.28
8703;BME280;9002;42.708;23.186;2023-06-14T02:56:32;94645.16;;;19.22;81.66
8703;BME280;9002;42.708;23.186;2023-06-14T02:58:59;94684.00;;;19.81;79.71
8703;BME280;9002;42.708;23.186;2023-06-14T03:01:27;94684.00;;;19.81;79.39
8703;BME280;9002;42.708;23.186;2023-06-14T03:04:00;94643.09;;;19.63;78.75
8703;BME280;9002;42.708;23.186;2023-06-14T03:06:30;94685.34;;;20.05;78.11
8703;BME280;9002;42.708;23.186;2023-06-14T03:08:57;94657.44;;;19.77;77.61
8703;BME280;9002;42.708;23.186;2023-06-14T03:11:26;94688.63;;;19.95;78.09
8703;BME280;9002;42.708;23.186;2023-06-14T03:13:54;94687.34;;;19.98;77.67
8703;BME280;9002;42.708;23.186;2023-06-14T03:16:22;94690.41;;;20.11;77.32
8703;BME280;9002;42.708;23.186;2023-06-14T03:18:51;94689.97;;;19.98;77.84
8703;BME280;9002;42.708;23.186;2023-06-14T03:21:18;94705.00;;;19.59;79.68
8703;BME280;9002;42.708;23.186;2023-06-14T03:23:46;94701.13;;;19.66;79.00
8703;BME280;9002;42.708;23.186;2023-06-14T03:26:14;94701.28;;;19.55;79.26
8703;BME280;9002;42.708;23.186;2023-06-14T03:28:43;94678.34;;;19.50;79.71
8703;BME280;9002;42.708;23.186;2023-06-14T03:31:10;94700.97;;;19.95;77.54
8703;BME280;9002;42.708;23.186;2023-06-14T03:33:37;94693.97;;;20.27;76.18
8703;BME280;9002;42.708;23.186;2023-06-14T03:36:05;94709.44;;;19.58;79.00
8703;BME280;9002;42.708;23.186;2023-06-14T03:38:33;94709.50;;;18.91;82.72
8703;BME280;9002;42.708;23.186;2023-06-14T03:41:02;94716.47;;;18.86;83.80
8703;BME280;9002;42.708;23.186;2023-06-14T03:43:29;94707.94;;;19.29;81.26
8703;BME280;9002;42.708;23.186;2023-06-14T03:45:56;94699.63;;;19.70;79.09
8703;BME280;9002;42.708;23.186;2023-06-14T03:48:23;94711.09;;;19.64;78.95
8703;BME280;9002;42.708;23.186;2023-06-14T03:50:51;94699.88;;;19.91;77.58
8703;BME280;9002;42.708;23.186;2023-06-14T03:53:18;94710.84;;;19.66;78.58
8703;BME280;9002;42.708;23.186;2023-06-14T03:55:46;94710.13;;;19.92;77.96
8703;BME280;9002;42.708;23.186;2023-06-14T03:58:15;94703.97;;;20.03;77.50
8703;BME280;9002;42.708;23.186;2023-06-14T04:00:42;94670.25;;;19.35;79.74
8703;BME280;9002;42.708;23.186;2023-06-14T04:03:10;94708.06;;;19.94;77.88
8703;BME280;9002;42.708;23.186;2023-06-14T04:05:38;94716.53;;;19.41;80.08
8703;BME280;9002;42.708;23.186;2023-06-14T04:08:10;94719.34;;;19.01;81.31
8703;BME280;9002;42.708;23.186;2023-06-14T04:10:40;94716.34;;;19.48;80.77
8703;BME280;9002;42.708;23.186;2023-06-14T04:15:43;94710.50;;;19.79;79.10
8703;BME280;9002;42.708;23.186;2023-06-14T04:18:11;94691.75;;;19.92;77.67
8703;BME280;9002;42.708;23.186;2023-06-14T04:20:38;94694.31;;;19.87;77.39
8703;BME280;9002;42.708;23.186;2023-06-14T04:23:12;94692.19;;;19.62;78.04
8703;BME280;9002;42.708;23.186;2023-06-14T04:25:39;94711.97;;;19.92;77.33
8703;BME280;9002;42.708;23.186;2023-06-14T04:28:10;94712.50;;;19.72;78.57
8703;BME280;9002;42.708;23.186;2023-06-14T04:30:38;94706.09;;;19.63;77.83
8703;BME280;9002;42.708;23.186;2023-06-14T04:33:07;94709.66;;;19.95;77.20
8703;BME280;9002;42.708;23.186;2023-06-14T04:35:36;94715.72;;;20.44;75.32
8703;BME280;9002;42.708;23.186;2023-06-14T04:38:03;94710.81;;;20.31;75.79
8703;BME280;9002;42.708;23.186;2023-06-14T04:40:35;94715.09;;;20.59;74.48
8703;BME280;9002;42.708;23.186;2023-06-14T04:43:08;94713.97;;;20.06;76.98
8703;BME280;9002;42.708;23.186;2023-06-14T04:45:38;94711.06;;;20.03;76.51
8703;BME280;9002;42.708;23.186;2023-06-14T04:48:07;94711.28;;;19.79;77.77
8703;BME280;9002;42.708;23.186;2023-06-14T04:50:34;94714.09;;;19.95;76.70
8703;BME280;9002;42.708;23.186;2023-06-14T04:53:01;94714.31;;;20.37;75.31
8703;BME280;9002;42.708;23.186;2023-06-14T04:55:28;94717.13;;;20.79;73.19
8703;BME280;9002;42.708;23.186;2023-06-14T04:57:56;94708.09;;;21.02;72.10
8703;BME280;9002;42.708;23.186;2023-06-14T05:00:23;94725.25;;;21.47;70.70
8703;BME280;9002;42.708;23.186;2023-06-14T05:02:50;94724.53;;;21.56;70.44
8703;BME280;9002;42.708;23.186;2023-06-14T05:05:20;94721.84;;;21.14;71.75
8703;BME280;9002;42.708;23.186;2023-06-14T05:07:47;94712.31;;;20.71;72.76
8703;BME280;9002;42.708;23.186;2023-06-14T05:10:14;94734.84;;;20.94;73.17
8703;BME280;9002;42.708;23.186;2023-06-14T05:12:41;94728.41;;;21.43;70.45
8703;BME280;9002;42.708;23.186;2023-06-14T05:15:09;94733.84;;;21.74;70.13
8703;BME280;9002;42.708;23.186;2023-06-14T05:17:37;94731.97;;;22.17;69.16
8703;BME280;9002;42.708;23.186;2023-06-14T05:20:07;94725.47;;;22.50;67.47
8703;BME280;9002;42.708;23.186;2023-06-14T05:22:37;94685.97;;;21.87;69.49
8703;BME280;9002;42.708;23.186;2023-06-14T05:25:04;94738.75;;;22.02;70.21
8703;BME280;9002;42.708;23.186;2023-06-14T05:27:31;94740.44;;;22.29;68.70
8703;BME280;9002;42.708;23.186;2023-06-14T05:30:01;94744.75;;;22.70;66.57
8703;BME280;9002;42.708;23.186;2023-06-14T05:32:29;94746.84;;;22.58;66.52
8703;BME280;9002;42.708;23.186;2023-06-14T05:34:56;94744.72;;;22.55;66.56
8703;BME280;9002;42.708;23.186;2023-06-14T05:37:23;94755.13;;;22.10;68.78
8703;BME280;9002;42.708;23.186;2023-06-14T05:39:52;94750.19;;;22.28;67.93
8703;BME280;9002;42.708;23.186;2023-06-14T05:42:19;94751.06;;;22.49;67.27
8703;BME280;9002;42.708;23.186;2023-06-14T05:44:46;94758.16;;;22.44;67.94
8703;BME280;9002;42.708;23.186;2023-06-14T05:47:13;94751.88;;;22.75;65.81
8703;BME280;9002;42.708;23.186;2023-06-14T05:49:40;94753.28;;;22.93;65.24
8703;BME280;9002;42.708;23.186;2023-06-14T05:52:08;94749.06;;;22.97;65.44
8703;BME280;9002;42.708;23.186;2023-06-14T05:54:35;94757.25;;;23.05;65.23
8703;BME280;9002;42.708;23.186;2023-06-14T05:57:04;94747.66;;;22.74;65.85
8703;BME280;9002;42.708;23.186;2023-06-14T05:59:31;94751.38;;;22.78;66.17
8703;BME280;9002;42.708;23.186;2023-06-14T06:01:58;94760.03;;;22.48;67.25
8703;BME280;9002;42.708;23.186;2023-06-14T06:04:25;94747.13;;;22.72;65.87
8703;BME280;9002;42.708;23.186;2023-06-14T06:06:52;94770.03;;;22.46;67.36
8703;BME280;9002;42.708;23.186;2023-06-14T06:09:19;94759.97;;;22.38;67.32
8703;BME280;9002;42.708;23.186;2023-06-14T06:11:46;94767.06;;;22.27;68.75
8703;BME280;9002;42.708;23.186;2023-06-14T06:14:15;94772.50;;;22.05;70.19
8703;BME280;9002;42.708;23.186;2023-06-14T06:16:42;94773.06;;;22.13;69.83
8703;BME280;9002;42.708;23.186;2023-06-14T06:19:09;94760.03;;;21.91;70.42
8703;BME280;9002;42.708;23.186;2023-06-14T06:21:36;94776.81;;;21.80;71.36
8703;BME280;9002;42.708;23.186;2023-06-14T06:24:04;94773.00;;;21.60;72.44
8703;BME280;9002;42.708;23.186;2023-06-14T06:26:31;94784.16;;;22.20;70.31
8703;BME280;9002;42.708;23.186;2023-06-14T06:28:58;94752.03;;;22.23;68.68
8703;BME280;9002;42.708;23.186;2023-06-14T06:31:27;94783.78;;;22.63;67.84
8703;BME280;9002;42.708;23.186;2023-06-14T06:33:54;94777.97;;;22.66;67.93
8703;BME280;9002;42.708;23.186;2023-06-14T06:36:21;94776.50;;;23.11;66.48
8703;BME280;9002;42.708;23.186;2023-06-14T06:38:48;94774.13;;;23.20;65.75
8703;BME280;9002;42.708;23.186;2023-06-14T06:41:15;94784.97;;;23.08;66.14
8703;BME280;9002;42.708;23.186;2023-06-14T06:43:42;94781.56;;;23.63;63.83
8703;BME280;9002;42.708;23.186;2023-06-14T06:46:09;94774.13;;;23.70;63.34
8703;BME280;9002;42.708;23.186;2023-06-14T06:48:38;94775.16;;;23.85;62.53
8703;BME280;9002;42.708;23.186;2023-06-14T06:51:05;94777.56;;;23.46;63.49
8703;BME280;9002;42.708;23.186;2023-06-14T06:53:32;94776.75;;;23.20;64.31
8703;BME280;9002;42.708;23.186;2023-06-14T06:55:59;94781.25;;;23.14;65.26
8703;BME280;9002;42.708;23.186;2023-06-14T06:58:26;94774.91;;;23.51;63.73
8703;BME280;9002;42.708;23.186;2023-06-14T07:00:53;94780.75;;;23.63;62.97
8703;BME280;9002;42.708;23.186;2023-06-14T07:03:20;94774.06;;;23.96;62.31
8703;BME280;9002;42.708;23.186;2023-06-14T07:05:48;94772.75;;;23.88;62.60
8703;BME280;9002;42.708;23.186;2023-06-14T07:08:15;94778.59;;;23.75;63.08
8703;BME280;9002;42.708;23.186;2023-06-14T07:10:42;94776.91;;;24.20;61.82
8703;BME280;9002;42.708;23.186;2023-06-14T07:13:09;94775.88;;;24.26;61.25
8703;BME280;9002;42.708;23.186;2023-06-14T07:15:36;94776.81;;;24.50;61.11
8703;BME280;9002;42.708;23.186;2023-06-14T07:18:03;94769.16;;;24.93;59.66
8703;BME280;9002;42.708;23.186;2023-06-14T07:20:30;94773.38;;;24.45;60.90
8703;BME280;9002;42.708;23.186;2023-06-14T07:23:00;94768.25;;;24.68;60.68
8703;BME280;9002;42.708;23.186;2023-06-14T07:28:01;94770.16;;;24.58;60.47
8703;BME280;9002;42.708;23.186;2023-06-14T07:30:28;94766.69;;;24.62;60.09
8703;BME280;9002;42.708;23.186;2023-06-14T07:32:56;94767.81;;;25.00;59.30
8703;BME280;9002;42.708;23.186;2023-06-14T07:35:23;94769.66;;;25.39;57.63
8703;BME280;9002;42.708;23.186;2023-06-14T07:37:50;94763.00;;;25.99;55.57
8703;BME280;9002;42.708;23.186;2023-06-14T07:40:18;94760.66;;;25.69;55.86
8703;BME280;9002;42.708;23.186;2023-06-14T07:42:45;94772.91;;;25.89;55.66
8703;BME280;9002;42.708;23.186;2023-06-14T07:45:13;94750.91;;;25.59;55.42
8703;BME280;9002;42.708;23.186;2023-06-14T07:47:40;94741.72;;;25.18;57.94
8703;BME280;9002;42.708;23.186;2023-06-14T07:50:08;94765.97;;;25.93;55.66
8703;BME280;9002;42.708;23.186;2023-06-14T07:52:35;94767.31;;;26.14;55.46
8703;BME280;9002;42.708;23.186;2023-06-14T07:55:03;94769.81;;;26.53;53.84
8703;BME280;9002;42.708;23.186;2023-06-14T07:57:32;94781.06;;;25.69;55.73
8703;BME280;9002;42.708;23.186;2023-06-14T07:59:59;94781.66;;;25.89;53.81
8703;BME280;9002;42.708;23.186;2023-06-14T08:02:26;94773.16;;;25.58;55.45
8703;BME280;9002;42.708;23.186;2023-06-14T08:04:53;94780.84;;;25.31;57.25
8703;BME280;9002;42.708;23.186;2023-06-14T08:07:20;94784.31;;;24.82;58.53
8703;BME280;9002;42.708;23.186;2023-06-14T08:09:47;94786.22;;;24.77;57.77
8703;BME280;9002;42.708;23.186;2023-06-14T08:12:14;94793.81;;;24.29;59.51
8703;BME280;9002;42.708;23.186;2023-06-14T08:14:43;94800.81;;;24.64;58.92
8703;BME280;9002;42.708;23.186;2023-06-14T08:17:10;94802.78;;;25.37;57.63
8703;BME280;9002;42.708;23.186;2023-06-14T08:19:37;94795.25;;;25.49;56.65
8703;BME280;9002;42.708;23.186;2023-06-14T08:22:05;94793.53;;;25.68;55.78
8703;BME280;9002;42.708;23.186;2023-06-14T08:24:32;94794.19;;;25.16;56.52
8703;BME280;9002;42.708;23.186;2023-06-14T08:26:59;94793.09;;;26.09;54.32
8703;BME280;9002;42.708;23.186;2023-06-14T08:29:27;94801.13;;;26.27;53.61
8703;BME280;9002;42.708;23.186;2023-06-14T08:31:57;94797.06;;;25.53;55.60
8703;BME280;9002;42.708;23.186;2023-06-14T08:34:24;94799.53;;;26.31;53.93
8703;BME280;9002;42.708;23.186;2023-06-14T08:36:51;94806.34;;;26.38;52.88
8703;BME280;9002;42.708;23.186;2023-06-14T08:39:18;94795.75;;;26.38;52.88
8703;BME280;9002;42.708;23.186;2023-06-14T08:41:46;94796.72;;;26.65;51.85
8703;BME280;9002;42.708;23.186;2023-06-14T08:44:14;94792.16;;;26.90;51.01
8703;BME280;9002;42.708;23.186;2023-06-14T08:46:42;94789.88;;;27.02;50.45
8703;BME280;9002;42.708;23.186;2023-06-14T08:49:12;94789.97;;;27.48;49.85
8703;BME280;9002;42.708;23.186;2023-06-14T08:51:39;94781.84;;;27.07;50.97
8703;BME280;9002;42.708;23.186;2023-06-14T08:54:07;94782.88;;;26.69;50.90
8703;BME280;9002;42.708;23.186;2023-06-14T08:56:37;94787.09;;;27.12;50.60
8703;BME280;9002;42.708;23.186;2023-06-14T08:59:08;94787.53;;;27.33;50.12
8703;BME280;9002;42.708;23.186;2023-06-14T09:01:37;94781.97;;;27.16;50.82
8703;BME280;9002;42.708;23.186;2023-06-14T09:04:04;94783.13;;;27.10;50.12
8703;BME280;9002;42.708;23.186;2023-06-14T09:06:33;94778.50;;;27.34;50.01
8703;BME280;9002;42.708;23.186;2023-06-14T09:09:02;94774.00;;;27.81;47.92
8703;BME280;9002;42.708;23.186;2023-06-14T09:11:30;94773.00;;;27.77;48.40
8703;BME280;9002;42.708;23.186;2023-06-14T09:13:57;94775.00;;;26.82;50.39
8703;BME280;9002;42.708;23.186;2023-06-14T09:16:25;94769.28;;;25.46;53.08
8703;BME280;9002;42.708;23.186;2023-06-14T09:18:53;94769.03;;;26.53;51.56
8703;BME280;9002;42.708;23.186;2023-06-14T09:21:20;94759.22;;;27.42;49.78
8703;BME280;9002;42.708;23.186;2023-06-14T09:23:49;94766.38;;;27.28;50.58
8703;BME280;9002;42.708;23.186;2023-06-14T09:26:17;94759.72;;;27.63;49.44
8703;BME280;9002;42.708;23.186;2023-06-14T09:28:46;94743.09;;;27.85;48.37
8703;BME280;9002;42.708;23.186;2023-06-14T09:31:14;94751.97;;;28.08;48.37
8703;BME280;9002;42.708;23.186;2023-06-14T09:33:42;94758.88;;;28.09;47.37
8703;BME280;9002;42.708;23.186;2023-06-14T09:36:15;94755.69;;;27.79;47.93
8703;BME280;9002;42.708;23.186;2023-06-14T09:38:53;94773.47;;;27.33;49.28
8703;BME280;9002;42.708;23.186;2023-06-14T09:41:20;94759.59;;;27.36;48.42
8703;BME280;9002;42.708;23.186;2023-06-14T09:43:47;94758.59;;;26.99;50.25
8703;BME280;9002;42.708;23.186;2023-06-14T09:46:15;94756.03;;;27.26;49.26
8703;BME280;9002;42.708;23.186;2023-06-14T09:48:42;94754.16;;;27.27;50.15
8703;BME280;9002;42.708;23.186;2023-06-14T09:51:13;94753.56;;;27.30;50.03
8703;BME280;9002;42.708;23.186;2023-06-14T09:53:43;94750.84;;;27.81;48.80
8703;BME280;9002;42.708;23.186;2023-06-14T09:56:15;94748.59;;;28.57;46.16
8703;BME280;9002;42.708;23.186;2023-06-14T09:58:44;94734.06;;;28.27;46.45
8703;BME280;9002;42.708;23.186;2023-06-14T10:01:11;94726.75;;;28.33;46.79
8703;BME280;9002;42.708;23.186;2023-06-14T10:03:39;94728.06;;;28.71;45.98
8703;BME280;9002;42.708;23.186;2023-06-14T10:06:08;94742.91;;;28.50;46.88
8703;BME280;9002;42.708;23.186;2023-06-14T10:08:36;94728.06;;;28.85;46.73
8703;BME280;9002;42.708;23.186;2023-06-14T10:11:04;94713.88;;;28.62;46.60
8703;BME280;9002;42.708;23.186;2023-06-14T10:16:23;94721.09;;;28.62;46.92
8703;BME280;9002;42.708;23.186;2023-06-14T10:18:57;94724.06;;;29.18;45.18
8703;BME280;9002;42.708;23.186;2023-06-14T10:21:32;94716.63;;;29.07;45.21
8703;BME280;9002;42.708;23.186;2023-06-14T10:24:04;94703.09;;;28.17;47.77
8703;BME280;9002;42.708;23.186;2023-06-14T10:26:33;94710.69;;;28.87;46.80
8703;BME280;9002;42.708;23.186;2023-06-14T10:29:06;94719.22;;;28.98;46.28
8703;BME280;9002;42.708;23.186;2023-06-14T10:31:42;94719.09;;;29.03;45.66
8703;BME280;9002;42.708;23.186;2023-06-14T10:34:10;94722.16;;;28.74;46.63
8703;BME280;9002;42.708;23.186;2023-06-14T10:36:38;94690.09;;;28.30;46.13
8703;BME280;9002;42.708;23.186;2023-06-14T10:39:08;94690.88;;;28.16;46.92
8703;BME280;9002;42.708;23.186;2023-06-14T10:41:38;94707.88;;;28.56;46.83
8703;BME280;9002;42.708;23.186;2023-06-14T10:44:40;94702.16;;;28.63;46.43
8703;BME280;9002;42.708;23.186;2023-06-14T10:47:10;94691.25;;;29.09;45.18
8703;BME280;9002;42.708;23.186;2023-06-14T10:49:42;94688.09;;;29.07;44.70
8703;BME280;9002;42.708;23.186;2023-06-14T10:52:11;94698.09;;;28.30;46.66
8703;BME280;9002;42.708;23.186;2023-06-14T10:55:10;94698.09;;;28.66;45.41
8703;BME280;9002;42.708;23.186;2023-06-14T10:57:42;94691.44;;;28.41;46.38
8703;BME280;9002;42.708;23.186;2023-06-14T11:00:12;94691.19;;;29.01;45.04
8703;BME280;9002;42.708;23.186;2023-06-14T11:03:19;94682.88;;;29.24;43.98
8703;BME280;9002;42.708;23.186;2023-06-14T11:05:54;94667.50;;;28.99;44.03
8703;BME280;9002;42.708;23.186;2023-06-14T11:11:17;94675.75;;;30.13;42.41
8703;BME280;9002;42.708;23.186;2023-06-14T11:13:45;94687.09;;;30.27;41.97
8703;BME280;9002;42.708;23.186;2023-06-14T11:16:14;94672.25;;;29.95;41.90
8703;BME280;9002;42.708;23.186;2023-06-14T11:18:43;94666.84;;;29.47;43.84
8703;BME280;9002;42.708;23.186;2023-06-14T11:21:11;94672.88;;;29.61;43.60
8703;BME280;9002;42.708;23.186;2023-06-14T11:23:38;94660.09;;;29.18;44.44
8703;BME280;9002;42.708;23.186;2023-06-14T11:26:05;94642.31;;;29.05;43.93
8703;BME280;9002;42.708;23.186;2023-06-14T11:28:38;94653.69;;;29.81;42.90
8703;BME280;9002;42.708;23.186;2023-06-14T11:31:07;94663.59;;;29.89;42.90
8703;BME280;9002;42.708;23.186;2023-06-14T11:33:34;94665.63;;;29.53;42.71
8703;BME280;9002;42.708;23.186;2023-06-14T11:36:03;94663.44;;;29.55;42.96
8703;BME280;9002;42.708;23.186;2023-06-14T11:38:35;94657.91;;;30.39;40.77
8703;BME280;9002;42.708;23.186;2023-06-14T11:41:03;94658.91;;;29.95;42.29
8703;BME280;9002;42.708;23.186;2023-06-14T11:43:31;94659.78;;;30.30;41.78
8703;BME280;9002;42.708;23.186;2023-06-14T11:46:00;94647.53;;;30.38;40.85
8703;BME280;9002;42.708;23.186;2023-06-14T11:48:36;94641.25;;;30.42;39.58
8703;BME280;9002;42.708;23.186;2023-06-14T11:51:04;94640.66;;;30.80;39.54
8703;BME280;9002;42.708;23.186;2023-06-14T11:53:32;94634.34;;;30.93;39.53
8703;BME280;9002;42.708;23.186;2023-06-14T11:55:59;94643.81;;;29.51;42.67
8703;BME280;9002;42.708;23.186;2023-06-14T11:58:46;94639.53;;;29.72;42.37
8703;BME280;9002;42.708;23.186;2023-06-14T12:01:16;94636.53;;;29.34;42.68
8703;BME280;9002;42.708;23.186;2023-06-14T12:03:48;94624.75;;;30.23;41.02
8703;BME280;9002;42.708;23.186;2023-06-14T12:06:26;94621.31;;;30.31;41.29
8703;BME280;9002;42.708;23.186;2023-06-14T12:08:58;94590.06;;;30.40;39.87
8703;BME280;9002;42.708;23.186;2023-06-14T12:11:32;94592.88;;;31.42;38.65
8703;BME280;9002;42.708;23.186;2023-06-14T12:14:00;94601.47;;;31.95;37.72
8703;BME280;9002;42.708;23.186;2023-06-14T12:16:31;94558.06;;;31.51;37.90
8703;BME280;9002;42.708;23.186;2023-06-14T12:19:01;94569.28;;;31.44;38.63
8703;BME280;9002;42.708;23.186;2023-06-14T12:21:38;94597.50;;;31.25;38.88
8703;BME280;9002;42.708;23.186;2023-06-14T12:24:06;94592.38;;;31.49;38.33
8703;BME280;9002;42.708;23.186;2023-06-14T12:26:37;94595.78;;;31.67;38.08
8703;BME280;9002;42.708;23.186;2023-06-14T12:29:05;94598.56;;;30.60;38.53
8703;BME280;9002;42.708;23.186;2023-06-14T12:31:32;94606.56;;;29.68;40.49
8703;BME280;9002;42.708;23.186;2023-06-14T12:33:59;94599.31;;;28.98;42.75
8703;BME280;9002;42.708;23.186;2023-06-14T12:36:26;94591.28;;;29.20;42.25
8703;BME280;9002;42.708;23.186;2023-06-14T12:38:55;94596.38;;;29.31;41.90
8703;BME280;9002;42.708;23.186;2023-06-14T12:41:22;94590.75;;;29.41;42.11
8703;BME280;9002;42.708;23.186;2023-06-14T12:43:50;94568.94;;;29.87;41.41
8703;BME280;9002;42.708;23.186;2023-06-14T12:46:17;94578.44;;;30.45;40.92
8703;BME280;9002;42.708;23.186;2023-06-14T12:48:44;94573.72;;;30.33;40.00
8703;BME280;9002;42.708;23.186;2023-06-14T12:51:11;94578.06;;;29.95;41.20
8703;BME280;9002;42.708;23.186;2023-06-14T12:53:38;94581.09;;;30.02;40.20
8703;BME280;9002;42.708;23.186;2023-06-14T12:56:06;94569.25;;;29.77;40.82
8703;BME280;9002;42.708;23.186;2023-06-14T12:58:33;94574.84;;;29.58;40.78
8703;BME280;9002;42.708;23.186;2023-06-14T13:01:00;94573.06;;;29.14;42.46
8703;BME280;9002;42.708;23.186;2023-06-14T13:03:27;94574.19;;;28.90;43.21
8703;BME280;9002;42.708;23.186;2023-06-14T13:05:54;94587.31;;;29.09;43.16
8703;BME280;9002;42.708;23.186;2023-06-14T13:08:21;94587.56;;;28.99;43.33
8703;BME280;9002;42.708;23.186;2023-06-14T13:10:49;94577.78;;;28.64;43.92
8703;BME280;9002;42.708;23.186;2023-06-14T13:13:17;94582.44;;;28.58;45.03
8703;BME280;9002;42.708;23.186;2023-06-14T13:15:44;94575.34;;;28.53;44.47
8703;BME280;9002;42.708;23.186;2023-06-14T13:18:11;94582.44;;;28.80;44.20
8703;BME280;9002;42.708;23.186;2023-06-14T13:20:39;94583.91;;;27.23;48.09
8703;BME280;9002;42.708;23.186;2023-06-14T13:23:06;94580.41;;;25.21;53.79
8703;BME280;9002;42.708;23.186;2023-06-14T13:25:33;94623.34;;;25.18;55.03
8703;BME280;9002;42.708;23.186;2023-06-14T13:28:00;94635.88;;;23.85;60.58